sensor_id;sensor_type;location;lat;lon;timestamp;temperature;humidity
55369;DHT22;41247;49.736;8.752;2022-09-01T00:01:00;14.80;99.90
55369;DHT22;41247;49.736;8.752;2022-09-01T00:04:43;14.80;99.90
55369;DHT22;41247;49.736;8.752;2022-09-01T00:08:24;14.80;99.90
55369;DHT22;41247;49.736;8.752;2022-09-01T00:12:07;14.70;99.90
55369;DHT22;41247;49.736;8.752;2022-09-01T00:15:49;14.70;99.90
55369;DHT22;41247;49.736;8.752;2022-09-01T00:19:30;14.70;99.90
55369;DHT22;41247;49.736;8.752;2022-09-01T00:23:11;14.60;99.90
55369;DHT22;41247;49.736;8.752;2022-09-01T00:26:54;14.60;99.90
55369;DHT22;41247;49.736;8.752;2022-09-01T00:30:35;14.60;99.90
55369;DHT22;41247;49.736;8.752;2022-09-01T00:34:16;14.60;99.90
55369;DHT22;41247;49.736;8.752;2022-09-01T00:37:56;14.60;99.90
55369;DHT22;41247;49.736;8.752;2022-09-01T00:41:39;14.50;99.90
55369;DHT22;41247;49.736;8.752;2022-09-01T00:45:21;14.50;99.90
55369;DHT22;41247;49.736;8.752;2022-09-01T00:53:09;14.50;99.90
55369;DHT22;41247;49.736;8.752;2022-09-01T00:56:51;14.50;99.90
55369;DHT22;41247;49.736;8.752;2022-09-01T01:00:37;14.50;99.90
55369;DHT22;41247;49.736;8.752;2022-09-01T01:04:20;14.50;99.90
55369;DHT22;41247;49.736;8.752;2022-09-01T01:08:08;14.50;99.90
55369;DHT22;41247;49.736;8.752;2022-09-01T01:11:49;14.50;99.90
55369;DHT22;41247;49.736;8.752;2022-09-01T01:15:30;14.50;99.90
55369;DHT22;41247;49.736;8.752;2022-09-01T01:19:28;14.50;99.90
55369;DHT22;41247;49.736;8.752;2022-09-01T01:31:51;14.50;99.90
55369;DHT22;41247;49.736;8.752;2022-09-01T01:35:32;14.50;99.90
55369;DHT22;41247;49.736;8.752;2022-09-01T01:39:17;14.50;99.90
55369;DHT22;41247;49.736;8.752;2022-09-01T01:42:59;14.50;99.90
55369;DHT22;41247;49.736;8.752;2022-09-01T01:46:42;14.40;99.90
55369;DHT22;41247;49.736;8.752;2022-09-01T01:50:28;14.40;99.90
55369;DHT22;41247;49.736;8.752;2022-09-01T01:54:10;14.40;99.90
55369;DHT22;41247;49.736;8.752;2022-09-01T01:57:50;14.40;99.90
55369;DHT22;41247;49.736;8.752;2022-09-01T02:01:31;14.30;99.90
55369;DHT22;41247;49.736;8.752;2022-09-01T02:05:11;14.30;99.90
55369;DHT22;41247;49.736;8.752;2022-09-01T02:08:54;14.30;99.90
55369;DHT22;41247;49.736;8.752;2022-09-01T02:12:35;14.20;99.90
55369;DHT22;41247;49.736;8.752;2022-09-01T02:16:16;14.30;99.90
55369;DHT22;41247;49.736;8.752;2022-09-01T02:19:56;14.30;99.90
55369;DHT22;41247;49.736;8.752;2022-09-01T02:23:38;14.20;99.90
55369;DHT22;41247;49.736;8.752;2022-09-01T02:27:20;14.30;99.90
55369;DHT22;41247;49.736;8.752;2022-09-01T02:31:00;14.20;99.90
55369;DHT22;41247;49.736;8.752;2022-09-01T02:34:41;14.20;99.90
55369;DHT22;41247;49.736;8.752;2022-09-01T02:38:23;14.20;99.90
55369;DHT22;41247;49.736;8.752;2022-09-01T02:42:04;14.20;99.90
55369;DHT22;41247;49.736;8.752;2022-09-01T02:45:50;14.20;99.90
55369;DHT22;41247;49.736;8.752;2022-09-01T02:49:31;14.20;99.90
55369;DHT22;41247;49.736;8.752;2022-09-01T02:53:11;14.20;99.90
55369;DHT22;41247;49.736;8.752;2022-09-01T02:56:53;14.20;99.90
55369;DHT22;41247;49.736;8.752;2022-09-01T03:00:33;14.10;99.90
55369;DHT22;41247;49.736;8.752;2022-09-01T03:04:14;14.10;99.90
55369;DHT22;41247;49.736;8.752;2022-09-01T03:07:58;14.10;99.90
55369;DHT22;41247;49.736;8.752;2022-09-01T03:11:46;14.00;99.90
55369;DHT22;41247;49.736;8.752;2022-09-01T03:15:28;14.00;99.90
55369;DHT22;41247;49.736;8.752;2022-09-01T03:19:09;14.00;99.90
55369;DHT22;41247;49.736;8.752;2022-09-01T03:22:50;14.00;99.90
55369;DHT22;41247;49.736;8.752;2022-09-01T03:26:31;13.90;99.90
55369;DHT22;41247;49.736;8.752;2022-09-01T03:30:12;13.90;99.90
55369;DHT22;41247;49.736;8.752;2022-09-01T03:33:54;13.90;99.90
55369;DHT22;41247;49.736;8.752;2022-09-01T03:37:35;13.80;99.90
55369;DHT22;41247;49.736;8.752;2022-09-01T03:41:18;13.80;99.90
55369;DHT22;41247;49.736;8.752;2022-09-01T03:45:02;13.80;99.90
55369;DHT22;41247;49.736;8.752;2022-09-01T03:48:44;13.70;99.90
55369;DHT22;41247;49.736;8.752;2022-09-01T03:52:25;13.70;99.90
55369;DHT22;41247;49.736;8.752;2022-09-01T03:56:06;13.60;99.90
55369;DHT22;41247;49.736;8.752;2022-09-01T03:59:46;13.60;99.90
55369;DHT22;41247;49.736;8.752;2022-09-01T04:03:32;13.50;99.90
55369;DHT22;41247;49.736;8.752;2022-09-01T04:07:13;13.40;99.90
55369;DHT22;41247;49.736;8.752;2022-09-01T04:10:54;13.30;99.90
55369;DHT22;41247;49.736;8.752;2022-09-01T04:14:35;13.20;99.90
55369;DHT22;41247;49.736;8.752;2022-09-01T04:18:17;13.00;99.90
55369;DHT22;41247;49.736;8.752;2022-09-01T04:21:59;12.90;99.90
55369;DHT22;41247;49.736;8.752;2022-09-01T04:25:40;12.70;99.90
55369;DHT22;41247;49.736;8.752;2022-09-01T04:29:21;12.70;99.90
55369;DHT22;41247;49.736;8.752;2022-09-01T04:33:02;12.60;99.90
55369;DHT22;41247;49.736;8.752;2022-09-01T04:36:44;12.60;99.90
55369;DHT22;41247;49.736;8.752;2022-09-01T04:40:25;12.50;99.90
55369;DHT22;41247;49.736;8.752;2022-09-01T04:44:09;12.50;99.90
55369;DHT22;41247;49.736;8.752;2022-09-01T04:47:52;12.50;99.90
55369;DHT22;41247;49.736;8.752;2022-09-01T04:51:37;12.50;99.90
55369;DHT22;41247;49.736;8.752;2022-09-01T04:55:19;12.50;99.90
55369;DHT22;41247;49.736;8.752;2022-09-01T04:59:21;12.60;99.90
55369;DHT22;41247;49.736;8.752;2022-09-01T05:03:51;12.60;99.90
55369;DHT22;41247;49.736;8.752;2022-09-01T05:07:32;12.70;99.90
55369;DHT22;41247;49.736;8.752;2022-09-01T05:11:13;12.70;99.90
55369;DHT22;41247;49.736;8.752;2022-09-01T05:28:47;13.00;99.90
55369;DHT22;41247;49.736;8.752;2022-09-01T05:41:35;13.20;99.90
55369;DHT22;41247;49.736;8.752;2022-09-01T05:50:12;13.40;99.90
55369;DHT22;41247;49.736;8.752;2022-09-01T05:54:00;13.40;99.90
55369;DHT22;41247;49.736;8.752;2022-09-01T05:58:09;13.50;99.90
55369;DHT22;41247;49.736;8.752;2022-09-01T06:02:04;13.70;99.90
55369;DHT22;41247;49.736;8.752;2022-09-01T06:10:30;14.10;99.90
55369;DHT22;41247;49.736;8.752;2022-09-01T06:14:16;14.20;99.90
55369;DHT22;41247;49.736;8.752;2022-09-01T06:17:57;14.40;99.90
55369;DHT22;41247;49.736;8.752;2022-09-01T06:31:07;14.80;99.90
55369;DHT22;41247;49.736;8.752;2022-09-01T06:34:47;15.00;99.90
55369;DHT22;41247;49.736;8.752;2022-09-01T06:38:40;15.10;99.90
55369;DHT22;41247;49.736;8.752;2022-09-01T06:42:20;15.40;99.90
55369;DHT22;41247;49.736;8.752;2022-09-01T06:46:28;15.50;99.90
55369;DHT22;41247;49.736;8.752;2022-09-01T06:55:28;15.80;99.90
55369;DHT22;41247;49.736;8.752;2022-09-01T06:59:33;16.00;99.90
55369;DHT22;41247;49.736;8.752;2022-09-01T07:03:14;16.20;99.90
55369;DHT22;41247;49.736;8.752;2022-09-01T07:06:55;16.30;99.90
55369;DHT22;41247;49.736;8.752;2022-09-01T07:10:42;16.40;99.90
55369;DHT22;41247;49.736;8.752;2022-09-01T07:14:23;16.40;99.90
55369;DHT22;41247;49.736;8.752;2022-09-01T07:18:04;16.40;99.90
55369;DHT22;41247;49.736;8.752;2022-09-01T07:21:45;16.50;99.90
55369;DHT22;41247;49.736;8.752;2022-09-01T07:25:25;16.60;99.90
55369;DHT22;41247;49.736;8.752;2022-09-01T07:29:06;16.70;99.90
55369;DHT22;41247;49.736;8.752;2022-09-01T07:32:48;16.80;99.90
55369;DHT22;41247;49.736;8.752;2022-09-01T07:36:28;16.90;99.90
55369;DHT22;41247;49.736;8.752;2022-09-01T07:40:11;17.00;99.90
55369;DHT22;41247;49.736;8.752;2022-09-01T07:43:54;17.30;99.90
55369;DHT22;41247;49.736;8.752;2022-09-01T07:47:35;17.60;99.90
55369;DHT22;41247;49.736;8.752;2022-09-01T07:51:19;17.60;99.90
55369;DHT22;41247;49.736;8.752;2022-09-01T07:55:01;17.70;99.90
55369;DHT22;41247;49.736;8.752;2022-09-01T07:58:43;17.80;99.90
55369;DHT22;41247;49.736;8.752;2022-09-01T08:02:24;18.00;99.90
55369;DHT22;41247;49.736;8.752;2022-09-01T08:06:11;18.20;99.90
55369;DHT22;41247;49.736;8.752;2022-09-01T08:09:52;18.30;99.90
55369;DHT22;41247;49.736;8.752;2022-09-01T08:13:35;18.40;99.90
55369;DHT22;41247;49.736;8.752;2022-09-01T08:17:16;18.50;99.90
55369;DHT22;41247;49.736;8.752;2022-09-01T08:20:57;18.70;99.90
55369;DHT22;41247;49.736;8.752;2022-09-01T08:24:37;18.90;99.90
55369;DHT22;41247;49.736;8.752;2022-09-01T08:28:18;19.10;99.90
55369;DHT22;41247;49.736;8.752;2022-09-01T08:31:59;19.20;99.90
55369;DHT22;41247;49.736;8.752;2022-09-01T08:35:42;19.40;99.90
55369;DHT22;41247;49.736;8.752;2022-09-01T08:39:25;19.60;99.90
55369;DHT22;41247;49.736;8.752;2022-09-01T08:47:16;19.60;99.90
55369;DHT22;41247;49.736;8.752;2022-09-01T08:55:20;20.00;99.90
55369;DHT22;41247;49.736;8.752;2022-09-01T08:59:06;19.90;99.90
55369;DHT22;41247;49.736;8.752;2022-09-01T09:15:02;20.20;99.90
55369;DHT22;41247;49.736;8.752;2022-09-01T09:18:53;20.50;99.90
55369;DHT22;41247;49.736;8.752;2022-09-01T09:22:36;21.00;99.90
55369;DHT22;41247;49.736;8.752;2022-09-01T09:26:17;20.90;99.90
55369;DHT22;41247;49.736;8.752;2022-09-01T09:29:59;20.80;99.90
55369;DHT22;41247;49.736;8.752;2022-09-01T09:33:45;21.00;99.90
55369;DHT22;41247;49.736;8.752;2022-09-01T09:37:30;21.10;99.90
55369;DHT22;41247;49.736;8.752;2022-09-01T09:41:19;20.90;99.90
55369;DHT22;41247;49.736;8.752;2022-09-01T09:45:01;20.80;99.90
55369;DHT22;41247;49.736;8.752;2022-09-01T09:48:41;20.70;99.90
55369;DHT22;41247;49.736;8.752;2022-09-01T09:52:22;20.50;99.90
55369;DHT22;41247;49.736;8.752;2022-09-01T10:04:09;20.40;99.90
55369;DHT22;41247;49.736;8.752;2022-09-01T10:07:50;20.60;99.90
55369;DHT22;41247;49.736;8.752;2022-09-01T10:11:40;20.90;99.90
55369;DHT22;41247;49.736;8.752;2022-09-01T10:15:29;21.10;99.90
55369;DHT22;41247;49.736;8.752;2022-09-01T10:19:13;21.50;99.90
55369;DHT22;41247;49.736;8.752;2022-09-01T10:22:55;22.20;99.90
55369;DHT22;41247;49.736;8.752;2022-09-01T10:26:38;22.60;99.90
55369;DHT22;41247;49.736;8.752;2022-09-01T10:30:21;22.80;99.90
55369;DHT22;41247;49.736;8.752;2022-09-01T10:34:04;23.10;99.90
55369;DHT22;41247;49.736;8.752;2022-09-01T10:37:46;23.50;99.90
55369;DHT22;41247;49.736;8.752;2022-09-01T10:41:56;23.60;99.90
55369;DHT22;41247;49.736;8.752;2022-09-01T10:45:38;23.70;99.90
55369;DHT22;41247;49.736;8.752;2022-09-01T11:05:20;23.80;99.90
55369;DHT22;41247;49.736;8.752;2022-09-01T11:09:04;23.50;99.90
55369;DHT22;41247;49.736;8.752;2022-09-01T11:17:15;23.30;99.90
55369;DHT22;41247;49.736;8.752;2022-09-01T11:21:34;23.00;99.90
55369;DHT22;41247;49.736;8.752;2022-09-01T11:29:52;22.70;99.90
55369;DHT22;41247;49.736;8.752;2022-09-01T11:33:58;22.80;99.90
55369;DHT22;41247;49.736;8.752;2022-09-01T11:37:42;23.20;99.90
55369;DHT22;41247;49.736;8.752;2022-09-01T11:41:33;23.80;99.90
55369;DHT22;41247;49.736;8.752;2022-09-01T11:45:25;24.50;99.90
55369;DHT22;41247;49.736;8.752;2022-09-01T11:49:24;24.70;99.90
55369;DHT22;41247;49.736;8.752;2022-09-01T11:53:08;24.60;99.90
55369;DHT22;41247;49.736;8.752;2022-09-01T11:56:52;24.10;99.90
55369;DHT22;41247;49.736;8.752;2022-09-01T12:00:36;23.60;99.90
55369;DHT22;41247;49.736;8.752;2022-09-01T12:04:21;23.20;99.90
55369;DHT22;41247;49.736;8.752;2022-09-01T12:08:15;23.00;99.90
55369;DHT22;41247;49.736;8.752;2022-09-01T12:11:56;22.80;99.90
55369;DHT22;41247;49.736;8.752;2022-09-01T12:15:39;22.70;99.90
55369;DHT22;41247;49.736;8.752;2022-09-01T12:19:26;22.80;99.90
55369;DHT22;41247;49.736;8.752;2022-09-01T12:23:39;22.70;99.90
55369;DHT22;41247;49.736;8.752;2022-09-01T12:27:20;22.70;99.90
55369;DHT22;41247;49.736;8.752;2022-09-01T12:31:05;22.70;99.90
55369;DHT22;41247;49.736;8.752;2022-09-01T12:35:06;22.80;99.90
55369;DHT22;41247;49.736;8.752;2022-09-01T12:39:19;22.90;99.90
55369;DHT22;41247;49.736;8.752;2022-09-01T12:43:01;23.10;99.90
55369;DHT22;41247;49.736;8.752;2022-09-01T12:46:44;23.20;99.90
55369;DHT22;41247;49.736;8.752;2022-09-01T12:54:05;23.40;99.90
55369;DHT22;41247;49.736;8.752;2022-09-01T12:57:51;23.40;99.90
55369;DHT22;41247;49.736;8.752;2022-09-01T13:01:35;23.40;99.90
55369;DHT22;41247;49.736;8.752;2022-09-01T13:09:05;23.40;99.90
55369;DHT22;41247;49.736;8.752;2022-09-01T13:12:46;23.80;99.90
55369;DHT22;41247;49.736;8.752;2022-09-01T13:16:27;24.50;99.90
55369;DHT22;41247;49.736;8.752;2022-09-01T13:20:08;25.40;99.90
55369;DHT22;41247;49.736;8.752;2022-09-01T13:23:50;25.80;99.90
55369;DHT22;41247;49.736;8.752;2022-09-01T13:27:30;25.50;99.90
55369;DHT22;41247;49.736;8.752;2022-09-01T13:31:12;25.30;99.90
55369;DHT22;41247;49.736;8.752;2022-09-01T13:34:53;25.10;99.90
55369;DHT22;41247;49.736;8.752;2022-09-01T13:38:33;25.00;99.90
55369;DHT22;41247;49.736;8.752;2022-09-01T13:42:14;25.10;99.90
55369;DHT22;41247;49.736;8.752;2022-09-01T13:45:56;25.30;99.90
55369;DHT22;41247;49.736;8.752;2022-09-01T13:49:36;25.80;99.90
55369;DHT22;41247;49.736;8.752;2022-09-01T13:53:17;26.60;99.90
55369;DHT22;41247;49.736;8.752;2022-09-01T13:56:58;27.20;99.90
55369;DHT22;41247;49.736;8.752;2022-09-01T14:00:44;27.80;99.90
55369;DHT22;41247;49.736;8.752;2022-09-01T14:04:26;28.20;99.90
55369;DHT22;41247;49.736;8.752;2022-09-01T14:08:08;27.70;99.90
55369;DHT22;41247;49.736;8.752;2022-09-01T14:11:54;27.60;99.90
55369;DHT22;41247;49.736;8.752;2022-09-01T14:15:35;27.40;99.90
55369;DHT22;41247;49.736;8.752;2022-09-01T14:19:16;27.70;99.90
55369;DHT22;41247;49.736;8.752;2022-09-01T14:22:57;27.80;99.90
55369;DHT22;41247;49.736;8.752;2022-09-01T14:26:40;28.40;99.90
55369;DHT22;41247;49.736;8.752;2022-09-01T14:30:26;28.80;99.90
55369;DHT22;41247;49.736;8.752;2022-09-01T14:34:08;28.70;99.90
55369;DHT22;41247;49.736;8.752;2022-09-01T14:37:49;27.90;99.90
55369;DHT22;41247;49.736;8.752;2022-09-01T14:41:30;28.50;99.90
55369;DHT22;41247;49.736;8.752;2022-09-01T14:45:11;28.60;99.90
55369;DHT22;41247;49.736;8.752;2022-09-01T14:48:51;28.10;99.90
55369;DHT22;41247;49.736;8.752;2022-09-01T14:52:33;27.80;99.90
55369;DHT22;41247;49.736;8.752;2022-09-01T14:56:13;27.70;99.90
55369;DHT22;41247;49.736;8.752;2022-09-01T14:59:54;27.50;99.90
55369;DHT22;41247;49.736;8.752;2022-09-01T15:03:34;26.80;99.90
55369;DHT22;41247;49.736;8.752;2022-09-01T15:07:15;26.50;99.90
55369;DHT22;41247;49.736;8.752;2022-09-01T15:10:56;26.60;99.90
55369;DHT22;41247;49.736;8.752;2022-09-01T15:14:37;26.90;99.90
55369;DHT22;41247;49.736;8.752;2022-09-01T15:18:18;27.20;99.90
55369;DHT22;41247;49.736;8.752;2022-09-01T15:21:58;27.20;99.90
55369;DHT22;41247;49.736;8.752;2022-09-01T15:25:39;27.10;99.90
55369;DHT22;41247;49.736;8.752;2022-09-01T15:29:19;26.90;99.90
55369;DHT22;41247;49.736;8.752;2022-09-01T15:33:00;26.60;99.90
55369;DHT22;41247;49.736;8.752;2022-09-01T15:36:41;26.20;99.90
55369;DHT22;41247;49.736;8.752;2022-09-01T15:40:22;26.00;99.90
55369;DHT22;41247;49.736;8.752;2022-09-01T15:44:06;25.70;99.90
55369;DHT22;41247;49.736;8.752;2022-09-01T15:47:47;25.40;99.90
55369;DHT22;41247;49.736;8.752;2022-09-01T15:51:42;25.10;99.90
55369;DHT22;41247;49.736;8.752;2022-09-01T15:55:45;24.80;99.90
55369;DHT22;41247;49.736;8.752;2022-09-01T15:59:26;24.50;99.90
55369;DHT22;41247;49.736;8.752;2022-09-01T16:03:07;24.40;99.90
55369;DHT22;41247;49.736;8.752;2022-09-01T16:06:49;24.40;99.90
55369;DHT22;41247;49.736;8.752;2022-09-01T16:10:30;24.40;99.90
55369;DHT22;41247;49.736;8.752;2022-09-01T16:14:11;24.30;99.90
55369;DHT22;41247;49.736;8.752;2022-09-01T16:17:58;24.20;99.90
55369;DHT22;41247;49.736;8.752;2022-09-01T16:22:28;24.00;99.90
55369;DHT22;41247;49.736;8.752;2022-09-01T16:26:12;23.90;99.90
55369;DHT22;41247;49.736;8.752;2022-09-01T16:30:10;23.90;99.90
55369;DHT22;41247;49.736;8.752;2022-09-01T16:33:55;24.00;99.90
55369;DHT22;41247;49.736;8.752;2022-09-01T16:37:46;23.70;99.90
55369;DHT22;41247;49.736;8.752;2022-09-01T16:41:33;23.40;99.90
55369;DHT22;41247;49.736;8.752;2022-09-01T16:49:43;22.90;99.90
55369;DHT22;41247;49.736;8.752;2022-09-01T16:53:47;22.70;99.90
55369;DHT22;41247;49.736;8.752;2022-09-01T17:06:34;21.90;99.90
55369;DHT22;41247;49.736;8.752;2022-09-01T17:10:30;21.50;99.90
55369;DHT22;41247;49.736;8.752;2022-09-01T17:14:15;21.20;99.90
55369;DHT22;41247;49.736;8.752;2022-09-01T17:22:21;20.80;99.90
55369;DHT22;41247;49.736;8.752;2022-09-01T17:26:06;20.60;99.90
55369;DHT22;41247;49.736;8.752;2022-09-01T17:29:55;20.40;99.90
55369;DHT22;41247;49.736;8.752;2022-09-01T17:34:04;20.30;99.90
55369;DHT22;41247;49.736;8.752;2022-09-01T17:46:23;19.70;99.90
55369;DHT22;41247;49.736;8.752;2022-09-01T17:50:53;19.50;99.90
55369;DHT22;41247;49.736;8.752;2022-09-01T17:59:24;18.90;99.90
55369;DHT22;41247;49.736;8.752;2022-09-01T18:07:48;18.60;99.90
55369;DHT22;41247;49.736;8.752;2022-09-01T18:15:44;18.20;99.90
55369;DHT22;41247;49.736;8.752;2022-09-01T18:19:37;18.00;99.90
55369;DHT22;41247;49.736;8.752;2022-09-01T18:23:20;17.70;99.90
55369;DHT22;41247;49.736;8.752;2022-09-01T18:27:01;17.60;99.90
55369;DHT22;41247;49.736;8.752;2022-09-01T18:31:00;17.50;99.90
55369;DHT22;41247;49.736;8.752;2022-09-01T18:39:00;17.20;99.90
55369;DHT22;41247;49.736;8.752;2022-09-01T18:47:05;16.80;99.90
55369;DHT22;41247;49.736;8.752;2022-09-01T18:51:09;16.70;99.90
55369;DHT22;41247;49.736;8.752;2022-09-01T18:55:15;16.60;99.90
55369;DHT22;41247;49.736;8.752;2022-09-01T19:04:16;16.30;99.90
55369;DHT22;41247;49.736;8.752;2022-09-01T19:15:24;16.00;99.90
55369;DHT22;41247;49.736;8.752;2022-09-01T19:19:33;15.90;99.90
55369;DHT22;41247;49.736;8.752;2022-09-01T19:23:29;15.80;99.90
55369;DHT22;41247;49.736;8.752;2022-09-01T19:27:25;15.80;99.90
55369;DHT22;41247;49.736;8.752;2022-09-01T19:31:30;15.70;99.90
55369;DHT22;41247;49.736;8.752;2022-09-01T19:35:15;15.60;99.90
55369;DHT22;41247;49.736;8.752;2022-09-01T19:38:57;15.60;99.90
55369;DHT22;41247;49.736;8.752;2022-09-01T19:42:55;15.50;99.90
55369;DHT22;41247;49.736;8.752;2022-09-01T19:46:48;15.50;99.90
55369;DHT22;41247;49.736;8.752;2022-09-01T19:50:54;15.50;99.90
55369;DHT22;41247;49.736;8.752;2022-09-01T19:54:53;15.50;99.90
55369;DHT22;41247;49.736;8.752;2022-09-01T19:58:55;15.50;99.90
55369;DHT22;41247;49.736;8.752;2022-09-01T20:03:05;15.50;99.90
55369;DHT22;41247;49.736;8.752;2022-09-01T20:06:51;15.50;99.90
55369;DHT22;41247;49.736;8.752;2022-09-01T20:18:02;15.50;99.90
55369;DHT22;41247;49.736;8.752;2022-09-01T20:21:46;15.50;99.90
55369;DHT22;41247;49.736;8.752;2022-09-01T20:25:38;15.60;99.90
55369;DHT22;41247;49.736;8.752;2022-09-01T20:29:42;15.60;99.90
55369;DHT22;41247;49.736;8.752;2022-09-01T20:37:39;15.50;99.90
55369;DHT22;41247;49.736;8.752;2022-09-01T20:41:57;15.50;99.90
55369;DHT22;41247;49.736;8.752;2022-09-01T20:45:41;15.50;99.90
55369;DHT22;41247;49.736;8.752;2022-09-01T20:49:22;15.40;99.90
55369;DHT22;41247;49.736;8.752;2022-09-01T20:57:19;15.40;99.90
55369;DHT22;41247;49.736;8.752;2022-09-01T21:09:10;15.30;99.90
55369;DHT22;41247;49.736;8.752;2022-09-01T21:25:42;15.30;99.90
55369;DHT22;41247;49.736;8.752;2022-09-01T21:33:32;15.40;99.90
55369;DHT22;41247;49.736;8.752;2022-09-01T21:37:13;15.40;99.90
55369;DHT22;41247;49.736;8.752;2022-09-01T21:40:54;15.40;99.90
55369;DHT22;41247;49.736;8.752;2022-09-01T21:44:36;15.40;99.90
55369;DHT22;41247;49.736;8.752;2022-09-01T21:48:17;15.30;99.90
55369;DHT22;41247;49.736;8.752;2022-09-01T21:51:57;15.20;99.90
55369;DHT22;41247;49.736;8.752;2022-09-01T21:55:39;15.20;99.90
55369;DHT22;41247;49.736;8.752;2022-09-01T21:59:20;15.10;99.90
55369;DHT22;41247;49.736;8.752;2022-09-01T22:03:01;15.10;99.90
55369;DHT22;41247;49.736;8.752;2022-09-01T22:06:41;15.00;99.90
55369;DHT22;41247;49.736;8.752;2022-09-01T22:10:24;15.00;99.90
55369;DHT22;41247;49.736;8.752;2022-09-01T22:14:05;15.00;99.90
55369;DHT22;41247;49.736;8.752;2022-09-01T22:17:46;14.90;99.90
55369;DHT22;41247;49.736;8.752;2022-09-01T22:21:27;14.90;99.90
55369;DHT22;41247;49.736;8.752;2022-09-01T22:25:11;14.90;99.90
55369;DHT22;41247;49.736;8.752;2022-09-01T22:28:54;14.90;99.90
55369;DHT22;41247;49.736;8.752;2022-09-01T22:32:36;14.90;99.90
55369;DHT22;41247;49.736;8.752;2022-09-01T22:36:23;14.90;99.90
55369;DHT22;41247;49.736;8.752;2022-09-01T22:40:06;14.90;99.90
55369;DHT22;41247;49.736;8.752;2022-09-01T22:43:48;14.90;99.90
55369;DHT22;41247;49.736;8.752;2022-09-01T22:47:29;14.90;99.90
55369;DHT22;41247;49.736;8.752;2022-09-01T22:51:10;14.90;99.90
55369;DHT22;41247;49.736;8.752;2022-09-01T22:54:51;15.10;99.90
55369;DHT22;41247;49.736;8.752;2022-09-01T22:58:32;15.10;99.90
55369;DHT22;41247;49.736;8.752;2022-09-01T23:02:13;15.10;99.90
55369;DHT22;41247;49.736;8.752;2022-09-01T23:06:05;15.10;99.90
55369;DHT22;41247;49.736;8.752;2022-09-01T23:09:47;15.00;99.90
55369;DHT22;41247;49.736;8.752;2022-09-01T23:13:28;14.90;99.90
55369;DHT22;41247;49.736;8.752;2022-09-01T23:17:09;14.90;99.90
55369;DHT22;41247;49.736;8.752;2022-09-01T23:20:50;14.90;99.90
55369;DHT22;41247;49.736;8.752;2022-09-01T23:24:30;14.90;99.90
55369;DHT22;41247;49.736;8.752;2022-09-01T23:28:13;14.80;99.90
55369;DHT22;41247;49.736;8.752;2022-09-01T23:31:55;14.80;99.90
55369;DHT22;41247;49.736;8.752;2022-09-01T23:35:35;14.70;99.90
55369;DHT22;41247;49.736;8.752;2022-09-01T23:39:20;14.60;99.90
55369;DHT22;41247;49.736;8.752;2022-09-01T23:43:01;14.60;99.90
55369;DHT22;41247;49.736;8.752;2022-09-01T23:46:44;14.70;99.90
55369;DHT22;41247;49.736;8.752;2022-09-01T23:50:25;14.70;99.90
55369;DHT22;41247;49.736;8.752;2022-09-01T23:54:06;14.80;99.90
55369;DHT22;41247;49.736;8.752;2022-09-01T23:57:46;14.90;99.90
